Harrisonville, Illinois
Current Conditions -  °F | °C
As of 5:02 AM on Friday 24 Oct 2014 (Local Time) from KCPS Reporting Station
Overcast Overcast  
Wind Chill: 11°   Ceiling: 2600
Heat Index: 11°   Visibility: 10mi
Dew Point:   Wind: 0mph
Humidity: 89%   Direction: NA
Pressure: 30.1"   Gusts: NA
Location:  38.2838°N, 90.3044°W
Report Text: KCPS 241002Z AUTO 00000KT 10SM BKN026 OVC037 11/09 A3010 RMK AO2 T01110094
Loading
Personal Weather Stations






























Interactive Weather Map
Tropical Storm Tracking
New forecast layout! Learn more

10-Day Weather Forecast

Advertisements
Track Severe Weather on mobile